sensor_id;sensor_type;location;lat;lon;timestamp;P1;durP1;ratioP1;P2;durP2;ratioP2
72053;SDS011;59918;51.280;7.950;2024-03-08T00:00:05;34.63;;;18.20;;
72053;SDS011;59918;51.280;7.950;2024-03-08T00:02:31;40.20;;;17.70;;
72053;SDS011;59918;51.280;7.950;2024-03-08T00:04:56;34.75;;;18.15;;
72053;SDS011;59918;51.280;7.950;2024-03-08T00:07:22;39.65;;;19.65;;
72053;SDS011;59918;51.280;7.950;2024-03-08T00:09:47;39.45;;;19.95;;
72053;SDS011;59918;51.280;7.950;2024-03-08T00:12:12;36.67;;;19.27;;
72053;SDS011;59918;51.280;7.950;2024-03-08T00:14:37;33.63;;;18.00;;
72053;SDS011;59918;51.280;7.950;2024-03-08T00:17:03;37.10;;;18.60;;
72053;SDS011;59918;51.280;7.950;2024-03-08T00:19:28;37.50;;;18.42;;
72053;SDS011;59918;51.280;7.950;2024-03-08T00:21:53;37.72;;;19.65;;
72053;SDS011;59918;51.280;7.950;2024-03-08T00:24:21;42.88;;;19.60;;
72053;SDS011;59918;51.280;7.950;2024-03-08T00:26:46;40.08;;;20.58;;
72053;SDS011;59918;51.280;7.950;2024-03-08T00:29:11;38.17;;;19.38;;
72053;SDS011;59918;51.280;7.950;2024-03-08T00:31:36;41.60;;;19.25;;
72053;SDS011;59918;51.280;7.950;2024-03-08T00:34:02;38.17;;;19.02;;
72053;SDS011;59918;51.280;7.950;2024-03-08T00:36:27;45.20;;;20.35;;
72053;SDS011;59918;51.280;7.950;2024-03-08T00:38:52;40.15;;;20.05;;
72053;SDS011;59918;51.280;7.950;2024-03-08T00:41:18;38.13;;;19.02;;
72053;SDS011;59918;51.280;7.950;2024-03-08T00:43:43;44.42;;;19.42;;
72053;SDS011;59918;51.280;7.950;2024-03-08T00:46:08;37.58;;;19.13;;
72053;SDS011;59918;51.280;7.950;2024-03-08T00:48:33;33.50;;;17.38;;
72053;SDS011;59918;51.280;7.950;2024-03-08T00:50:59;37.85;;;19.00;;
72053;SDS011;59918;51.280;7.950;2024-03-08T00:53:24;37.38;;;18.75;;
72053;SDS011;59918;51.280;7.950;2024-03-08T00:55:49;38.67;;;18.90;;
72053;SDS011;59918;51.280;7.950;2024-03-08T00:58:15;37.53;;;18.38;;
72053;SDS011;59918;51.280;7.950;2024-03-08T01:00:40;42.63;;;19.73;;
72053;SDS011;59918;51.280;7.950;2024-03-08T01:03:05;39.45;;;19.77;;
72053;SDS011;59918;51.280;7.950;2024-03-08T01:05:30;38.08;;;19.42;;
72053;SDS011;59918;51.280;7.950;2024-03-08T01:07:56;37.03;;;17.95;;
72053;SDS011;59918;51.280;7.950;2024-03-08T01:10:21;37.95;;;18.83;;
72053;SDS011;59918;51.280;7.950;2024-03-08T01:12:46;44.28;;;20.20;;
72053;SDS011;59918;51.280;7.950;2024-03-08T01:15:11;37.88;;;19.15;;
72053;SDS011;59918;51.280;7.950;2024-03-08T01:17:37;40.63;;;18.83;;
72053;SDS011;59918;51.280;7.950;2024-03-08T01:20:02;40.03;;;18.67;;
72053;SDS011;59918;51.280;7.950;2024-03-08T01:22:29;40.15;;;19.42;;
72053;SDS011;59918;51.280;7.950;2024-03-08T01:24:54;42.90;;;20.90;;
72053;SDS011;59918;51.280;7.950;2024-03-08T01:27:19;46.90;;;20.83;;
72053;SDS011;59918;51.280;7.950;2024-03-08T01:29:44;45.47;;;19.98;;
72053;SDS011;59918;51.280;7.950;2024-03-08T01:32:10;46.13;;;20.10;;
72053;SDS011;59918;51.280;7.950;2024-03-08T01:34:35;41.78;;;20.13;;
72053;SDS011;59918;51.280;7.950;2024-03-08T01:37:00;40.42;;;20.75;;
72053;SDS011;59918;51.280;7.950;2024-03-08T01:39:25;45.75;;;21.08;;
72053;SDS011;59918;51.280;7.950;2024-03-08T01:41:53;44.00;;;19.95;;
72053;SDS011;59918;51.280;7.950;2024-03-08T01:44:18;45.58;;;20.70;;
72053;SDS011;59918;51.280;7.950;2024-03-08T01:46:44;44.70;;;20.98;;
72053;SDS011;59918;51.280;7.950;2024-03-08T01:49:10;46.30;;;20.73;;
72053;SDS011;59918;51.280;7.950;2024-03-08T01:51:36;51.75;;;20.90;;
72053;SDS011;59918;51.280;7.950;2024-03-08T01:54:03;50.67;;;21.40;;
72053;SDS011;59918;51.280;7.950;2024-03-08T01:56:29;47.03;;;22.13;;
72053;SDS011;59918;51.280;7.950;2024-03-08T01:58:55;42.13;;;21.02;;
72053;SDS011;59918;51.280;7.950;2024-03-08T02:01:20;40.55;;;20.02;;
72053;SDS011;59918;51.280;7.950;2024-03-08T02:03:45;43.85;;;20.60;;
72053;SDS011;59918;51.280;7.950;2024-03-08T02:06:11;44.70;;;20.27;;
72053;SDS011;59918;51.280;7.950;2024-03-08T02:08:37;43.13;;;19.73;;
72053;SDS011;59918;51.280;7.950;2024-03-08T02:11:02;47.40;;;19.98;;
72053;SDS011;59918;51.280;7.950;2024-03-08T02:13:28;39.00;;;20.33;;
72053;SDS011;59918;51.280;7.950;2024-03-08T02:15:54;39.00;;;20.30;;
72053;SDS011;59918;51.280;7.950;2024-03-08T02:18:24;38.42;;;18.58;;
72053;SDS011;59918;51.280;7.950;2024-03-08T02:23:22;38.63;;;19.02;;
72053;SDS011;59918;51.280;7.950;2024-03-08T02:25:51;37.88;;;19.70;;
72053;SDS011;59918;51.280;7.950;2024-03-08T02:28:16;41.33;;;19.73;;
72053;SDS011;59918;51.280;7.950;2024-03-08T02:30:44;41.83;;;19.98;;
72053;SDS011;59918;51.280;7.950;2024-03-08T02:33:15;34.95;;;18.52;;
72053;SDS011;59918;51.280;7.950;2024-03-08T02:35:41;38.83;;;19.80;;
72053;SDS011;59918;51.280;7.950;2024-03-08T02:38:07;39.80;;;18.95;;
72053;SDS011;59918;51.280;7.950;2024-03-08T02:40:32;39.92;;;18.55;;
72053;SDS011;59918;51.280;7.950;2024-03-08T02:42:58;51.60;;;21.23;;
72053;SDS011;59918;51.280;7.950;2024-03-08T02:45:23;38.47;;;19.25;;
72053;SDS011;59918;51.280;7.950;2024-03-08T02:47:48;46.30;;;21.13;;
72053;SDS011;59918;51.280;7.950;2024-03-08T02:50:16;39.50;;;19.23;;
72053;SDS011;59918;51.280;7.950;2024-03-08T02:52:42;40.08;;;18.30;;
72053;SDS011;59918;51.280;7.950;2024-03-08T02:55:07;36.95;;;18.65;;
72053;SDS011;59918;51.280;7.950;2024-03-08T02:57:33;40.55;;;19.92;;
72053;SDS011;59918;51.280;7.950;2024-03-08T02:59:58;44.03;;;20.33;;
72053;SDS011;59918;51.280;7.950;2024-03-08T03:02:24;44.38;;;20.60;;
72053;SDS011;59918;51.280;7.950;2024-03-08T03:04:49;42.28;;;19.70;;
72053;SDS011;59918;51.280;7.950;2024-03-08T03:07:14;44.88;;;18.15;;
72053;SDS011;59918;51.280;7.950;2024-03-08T03:09:39;42.83;;;19.05;;
72053;SDS011;59918;51.280;7.950;2024-03-08T03:12:04;37.95;;;19.42;;
72053;SDS011;59918;51.280;7.950;2024-03-08T03:14:30;42.20;;;19.23;;
72053;SDS011;59918;51.280;7.950;2024-03-08T03:16:55;40.33;;;18.30;;
72053;SDS011;59918;51.280;7.950;2024-03-08T03:19:22;41.40;;;18.40;;
72053;SDS011;59918;51.280;7.950;2024-03-08T03:21:48;36.47;;;18.15;;
72053;SDS011;59918;51.280;7.950;2024-03-08T03:24:13;39.15;;;19.17;;
72053;SDS011;59918;51.280;7.950;2024-03-08T03:26:38;44.42;;;19.35;;
72053;SDS011;59918;51.280;7.950;2024-03-08T03:29:05;41.45;;;18.95;;
72053;SDS011;59918;51.280;7.950;2024-03-08T03:31:30;36.65;;;18.55;;
72053;SDS011;59918;51.280;7.950;2024-03-08T03:33:55;38.47;;;18.48;;
72053;SDS011;59918;51.280;7.950;2024-03-08T03:36:21;41.15;;;18.38;;
72053;SDS011;59918;51.280;7.950;2024-03-08T03:38:46;46.63;;;20.65;;
72053;SDS011;59918;51.280;7.950;2024-03-08T03:41:11;40.95;;;20.02;;
72053;SDS011;59918;51.280;7.950;2024-03-08T03:43:37;39.47;;;18.40;;
72053;SDS011;59918;51.280;7.950;2024-03-08T03:46:02;41.17;;;19.02;;
72053;SDS011;59918;51.280;7.950;2024-03-08T03:48:30;45.13;;;20.02;;
72053;SDS011;59918;51.280;7.950;2024-03-08T03:50:56;48.30;;;19.98;;
72053;SDS011;59918;51.280;7.950;2024-03-08T03:53:21;43.10;;;21.05;;
72053;SDS011;59918;51.280;7.950;2024-03-08T03:55:46;47.53;;;22.35;;
72053;SDS011;59918;51.280;7.950;2024-03-08T03:58:11;40.20;;;20.05;;
72053;SDS011;59918;51.280;7.950;2024-03-08T04:00:37;48.83;;;20.65;;
72053;SDS011;59918;51.280;7.950;2024-03-08T04:03:02;45.15;;;20.80;;
72053;SDS011;59918;51.280;7.950;2024-03-08T04:05:28;43.30;;;19.27;;
72053;SDS011;59918;51.280;7.950;2024-03-08T04:07:53;48.33;;;20.92;;
72053;SDS011;59918;51.280;7.950;2024-03-08T04:10:19;41.53;;;19.48;;
72053;SDS011;59918;51.280;7.950;2024-03-08T04:12:45;42.80;;;18.75;;
72053;SDS011;59918;51.280;7.950;2024-03-08T04:15:10;44.53;;;19.80;;
72053;SDS011;59918;51.280;7.950;2024-03-08T04:17:35;44.53;;;20.33;;
72053;SDS011;59918;51.280;7.950;2024-03-08T04:20:01;47.70;;;20.95;;
72053;SDS011;59918;51.280;7.950;2024-03-08T04:22:26;45.83;;;20.17;;
72053;SDS011;59918;51.280;7.950;2024-03-08T04:24:51;44.83;;;21.15;;
72053;SDS011;59918;51.280;7.950;2024-03-08T04:27:17;43.90;;;19.92;;
72053;SDS011;59918;51.280;7.950;2024-03-08T04:29:42;47.28;;;21.33;;
72053;SDS011;59918;51.280;7.950;2024-03-08T04:32:07;43.83;;;20.63;;
72053;SDS011;59918;51.280;7.950;2024-03-08T04:34:35;49.63;;;20.58;;
72053;SDS011;59918;51.280;7.950;2024-03-08T04:37:01;44.67;;;20.38;;
72053;SDS011;59918;51.280;7.950;2024-03-08T04:39:26;46.78;;;20.38;;
72053;SDS011;59918;51.280;7.950;2024-03-08T04:41:51;48.22;;;20.95;;
72053;SDS011;59918;51.280;7.950;2024-03-08T04:44:17;46.88;;;21.17;;
72053;SDS011;59918;51.280;7.950;2024-03-08T04:46:42;46.55;;;20.00;;
72053;SDS011;59918;51.280;7.950;2024-03-08T04:49:07;46.13;;;20.10;;
72053;SDS011;59918;51.280;7.950;2024-03-08T04:51:33;44.33;;;19.60;;
72053;SDS011;59918;51.280;7.950;2024-03-08T04:53:58;43.92;;;20.13;;
72053;SDS011;59918;51.280;7.950;2024-03-08T04:56:23;46.42;;;19.80;;
72053;SDS011;59918;51.280;7.950;2024-03-08T04:58:48;39.88;;;19.00;;
72053;SDS011;59918;51.280;7.950;2024-03-08T05:01:14;42.85;;;20.52;;
72053;SDS011;59918;51.280;7.950;2024-03-08T05:03:39;50.05;;;22.17;;
72053;SDS011;59918;51.280;7.950;2024-03-08T05:06:04;48.33;;;21.00;;
72053;SDS011;59918;51.280;7.950;2024-03-08T05:08:30;49.20;;;20.50;;
72053;SDS011;59918;51.280;7.950;2024-03-08T05:10:55;47.17;;;21.13;;
72053;SDS011;59918;51.280;7.950;2024-03-08T05:13:21;48.13;;;20.77;;
72053;SDS011;59918;51.280;7.950;2024-03-08T05:15:49;47.38;;;21.40;;
72053;SDS011;59918;51.280;7.950;2024-03-08T05:18:14;46.80;;;20.95;;
72053;SDS011;59918;51.280;7.950;2024-03-08T05:20:40;46.90;;;19.88;;
72053;SDS011;59918;51.280;7.950;2024-03-08T05:23:05;44.70;;;20.50;;
72053;SDS011;59918;51.280;7.950;2024-03-08T05:25:30;46.65;;;19.67;;
72053;SDS011;59918;51.280;7.950;2024-03-08T05:27:55;48.25;;;20.90;;
72053;SDS011;59918;51.280;7.950;2024-03-08T05:30:21;48.33;;;20.90;;
72053;SDS011;59918;51.280;7.950;2024-03-08T05:32:48;51.22;;;21.63;;
72053;SDS011;59918;51.280;7.950;2024-03-08T05:35:14;46.88;;;21.83;;
72053;SDS011;59918;51.280;7.950;2024-03-08T05:37:39;47.50;;;19.95;;
72053;SDS011;59918;51.280;7.950;2024-03-08T05:40:05;46.00;;;20.67;;
72053;SDS011;59918;51.280;7.950;2024-03-08T05:42:31;49.45;;;21.50;;
72053;SDS011;59918;51.280;7.950;2024-03-08T05:44:56;50.25;;;20.80;;
72053;SDS011;59918;51.280;7.950;2024-03-08T05:47:21;48.33;;;20.65;;
72053;SDS011;59918;51.280;7.950;2024-03-08T05:49:46;47.83;;;20.30;;
72053;SDS011;59918;51.280;7.950;2024-03-08T05:52:14;50.17;;;20.77;;
72053;SDS011;59918;51.280;7.950;2024-03-08T05:54:39;48.50;;;20.58;;
72053;SDS011;59918;51.280;7.950;2024-03-08T05:57:04;50.10;;;21.00;;
72053;SDS011;59918;51.280;7.950;2024-03-08T05:59:30;51.35;;;20.95;;
72053;SDS011;59918;51.280;7.950;2024-03-08T06:01:55;57.85;;;22.35;;
72053;SDS011;59918;51.280;7.950;2024-03-08T06:04:20;49.20;;;21.45;;
72053;SDS011;59918;51.280;7.950;2024-03-08T06:06:45;49.30;;;21.52;;
72053;SDS011;59918;51.280;7.950;2024-03-08T06:09:11;62.05;;;22.10;;
72053;SDS011;59918;51.280;7.950;2024-03-08T06:11:36;50.83;;;20.00;;
72053;SDS011;59918;51.280;7.950;2024-03-08T06:14:01;49.88;;;20.27;;
72053;SDS011;59918;51.280;7.950;2024-03-08T06:16:26;49.22;;;21.38;;
72053;SDS011;59918;51.280;7.950;2024-03-08T06:18:52;52.50;;;21.25;;
72053;SDS011;59918;51.280;7.950;2024-03-08T06:21:17;56.78;;;21.90;;
72053;SDS011;59918;51.280;7.950;2024-03-08T06:23:42;50.53;;;20.33;;
72053;SDS011;59918;51.280;7.950;2024-03-08T06:26:08;45.78;;;20.27;;
72053;SDS011;59918;51.280;7.950;2024-03-08T06:28:33;47.63;;;20.73;;
72053;SDS011;59918;51.280;7.950;2024-03-08T06:30:59;52.95;;;21.88;;
72053;SDS011;59918;51.280;7.950;2024-03-08T06:33:24;55.88;;;21.08;;
72053;SDS011;59918;51.280;7.950;2024-03-08T06:35:50;53.45;;;21.10;;
72053;SDS011;59918;51.280;7.950;2024-03-08T06:38:17;52.22;;;21.27;;
72053;SDS011;59918;51.280;7.950;2024-03-08T06:40:42;49.28;;;20.75;;
72053;SDS011;59918;51.280;7.950;2024-03-08T06:43:08;50.92;;;20.50;;
72053;SDS011;59918;51.280;7.950;2024-03-08T06:45:33;47.72;;;19.90;;
72053;SDS011;59918;51.280;7.950;2024-03-08T06:47:58;46.97;;;21.02;;
72053;SDS011;59918;51.280;7.950;2024-03-08T06:50:23;53.20;;;22.13;;
72053;SDS011;59918;51.280;7.950;2024-03-08T06:52:48;54.90;;;21.98;;
72053;SDS011;59918;51.280;7.950;2024-03-08T06:55:14;53.53;;;21.83;;
72053;SDS011;59918;51.280;7.950;2024-03-08T06:57:39;61.92;;;24.02;;
72053;SDS011;59918;51.280;7.950;2024-03-08T07:00:07;59.22;;;23.45;;
72053;SDS011;59918;51.280;7.950;2024-03-08T07:02:33;56.33;;;22.17;;
72053;SDS011;59918;51.280;7.950;2024-03-08T07:04:59;57.00;;;22.88;;
72053;SDS011;59918;51.280;7.950;2024-03-08T07:07:24;49.88;;;22.05;;
72053;SDS011;59918;51.280;7.950;2024-03-08T07:09:49;58.33;;;22.80;;
72053;SDS011;59918;51.280;7.950;2024-03-08T07:12:14;60.25;;;22.52;;
72053;SDS011;59918;51.280;7.950;2024-03-08T07:14:40;55.80;;;22.65;;
72053;SDS011;59918;51.280;7.950;2024-03-08T07:17:05;56.35;;;24.45;;
72053;SDS011;59918;51.280;7.950;2024-03-08T07:19:30;55.28;;;24.05;;
72053;SDS011;59918;51.280;7.950;2024-03-08T07:21:55;59.63;;;23.58;;
72053;SDS011;59918;51.280;7.950;2024-03-08T07:24:21;61.03;;;24.85;;
72053;SDS011;59918;51.280;7.950;2024-03-08T07:26:46;55.78;;;24.23;;
72053;SDS011;59918;51.280;7.950;2024-03-08T07:29:11;51.42;;;22.08;;
72053;SDS011;59918;51.280;7.950;2024-03-08T07:31:36;57.30;;;25.33;;
72053;SDS011;59918;51.280;7.950;2024-03-08T07:34:02;58.03;;;25.08;;
72053;SDS011;59918;51.280;7.950;2024-03-08T07:36:27;54.65;;;25.73;;
72053;SDS011;59918;51.280;7.950;2024-03-08T07:38:52;58.85;;;26.52;;
72053;SDS011;59918;51.280;7.950;2024-03-08T07:41:17;54.40;;;24.02;;
72053;SDS011;59918;51.280;7.950;2024-03-08T07:43:45;45.75;;;22.77;;
72053;SDS011;59918;51.280;7.950;2024-03-08T07:46:11;49.97;;;22.75;;
72053;SDS011;59918;51.280;7.950;2024-03-08T07:48:36;65.32;;;30.58;;
72053;SDS011;59918;51.280;7.950;2024-03-08T07:51:01;40.97;;;19.80;;
72053;SDS011;59918;51.280;7.950;2024-03-08T07:53:27;60.33;;;28.95;;
72053;SDS011;59918;51.280;7.950;2024-03-08T07:55:52;52.63;;;23.00;;
72053;SDS011;59918;51.280;7.950;2024-03-08T07:58:17;44.38;;;21.00;;
72053;SDS011;59918;51.280;7.950;2024-03-08T08:00:43;35.90;;;18.92;;
72053;SDS011;59918;51.280;7.950;2024-03-08T08:03:08;35.88;;;18.45;;
72053;SDS011;59918;51.280;7.950;2024-03-08T08:05:33;34.80;;;17.50;;
72053;SDS011;59918;51.280;7.950;2024-03-08T08:07:58;34.00;;;19.17;;
72053;SDS011;59918;51.280;7.950;2024-03-08T08:10:24;34.58;;;17.42;;
72053;SDS011;59918;51.280;7.950;2024-03-08T08:12:49;32.85;;;18.30;;
72053;SDS011;59918;51.280;7.950;2024-03-08T08:15:14;35.30;;;17.20;;
72053;SDS011;59918;51.280;7.950;2024-03-08T08:17:39;33.25;;;16.55;;
72053;SDS011;59918;51.280;7.950;2024-03-08T08:20:05;30.48;;;16.70;;
72053;SDS011;59918;51.280;7.950;2024-03-08T08:22:31;29.38;;;16.33;;
72053;SDS011;59918;51.280;7.950;2024-03-08T08:24:56;29.08;;;17.35;;
72053;SDS011;59918;51.280;7.950;2024-03-08T08:27:21;29.77;;;15.80;;
72053;SDS011;59918;51.280;7.950;2024-03-08T08:29:46;31.77;;;15.95;;
72053;SDS011;59918;51.280;7.950;2024-03-08T08:32:12;28.27;;;15.55;;
72053;SDS011;59918;51.280;7.950;2024-03-08T08:34:37;30.77;;;17.02;;
72053;SDS011;59918;51.280;7.950;2024-03-08T08:37:02;29.10;;;16.55;;
72053;SDS011;59918;51.280;7.950;2024-03-08T08:39:27;28.10;;;16.13;;
72053;SDS011;59918;51.280;7.950;2024-03-08T08:41:53;29.02;;;16.23;;
72053;SDS011;59918;51.280;7.950;2024-03-08T08:44:18;33.83;;;17.05;;
72053;SDS011;59918;51.280;7.950;2024-03-08T08:46:43;30.88;;;16.15;;
72053;SDS011;59918;51.280;7.950;2024-03-08T08:49:09;27.45;;;15.75;;
72053;SDS011;59918;51.280;7.950;2024-03-08T08:51:34;24.42;;;14.93;;
72053;SDS011;59918;51.280;7.950;2024-03-08T08:53:59;25.40;;;14.98;;
72053;SDS011;59918;51.280;7.950;2024-03-08T08:56:27;25.33;;;15.25;;
72053;SDS011;59918;51.280;7.950;2024-03-08T08:58:52;30.05;;;16.05;;
72053;SDS011;59918;51.280;7.950;2024-03-08T09:01:18;27.05;;;15.80;;
72053;SDS011;59918;51.280;7.950;2024-03-08T09:03:43;27.08;;;14.82;;
72053;SDS011;59918;51.280;7.950;2024-03-08T09:06:10;23.33;;;14.43;;
72053;SDS011;59918;51.280;7.950;2024-03-08T09:08:36;24.63;;;14.50;;
72053;SDS011;59918;51.280;7.950;2024-03-08T09:11:01;27.90;;;15.32;;
72053;SDS011;59918;51.280;7.950;2024-03-08T09:13:27;26.33;;;14.82;;
72053;SDS011;59918;51.280;7.950;2024-03-08T09:15:52;24.70;;;14.48;;
72053;SDS011;59918;51.280;7.950;2024-03-08T09:18:17;26.00;;;14.57;;
72053;SDS011;59918;51.280;7.950;2024-03-08T09:20:42;20.60;;;13.27;;
72053;SDS011;59918;51.280;7.950;2024-03-08T09:23:08;23.90;;;14.85;;
72053;SDS011;59918;51.280;7.950;2024-03-08T09:25:33;22.60;;;13.73;;
72053;SDS011;59918;51.280;7.950;2024-03-08T09:27:59;21.42;;;13.20;;
72053;SDS011;59918;51.280;7.950;2024-03-08T09:30:24;21.45;;;12.60;;
72053;SDS011;59918;51.280;7.950;2024-03-08T09:32:49;18.92;;;11.95;;
72053;SDS011;59918;51.280;7.950;2024-03-08T09:35:14;19.92;;;12.50;;
72053;SDS011;59918;51.280;7.950;2024-03-08T09:37:40;18.58;;;11.48;;
72053;SDS011;59918;51.280;7.950;2024-03-08T09:40:05;19.05;;;12.20;;
72053;SDS011;59918;51.280;7.950;2024-03-08T09:42:31;20.52;;;12.02;;
72053;SDS011;59918;51.280;7.950;2024-03-08T09:44:56;18.83;;;11.75;;
72053;SDS011;59918;51.280;7.950;2024-03-08T09:47:21;19.95;;;11.73;;
72053;SDS011;59918;51.280;7.950;2024-03-08T09:49:49;14.48;;;10.65;;
72053;SDS011;59918;51.280;7.950;2024-03-08T09:52:15;18.88;;;11.68;;
72053;SDS011;59918;51.280;7.950;2024-03-08T09:54:40;19.00;;;11.68;;
72053;SDS011;59918;51.280;7.950;2024-03-08T09:57:06;14.98;;;11.05;;
72053;SDS011;59918;51.280;7.950;2024-03-08T09:59:31;14.98;;;10.55;;
72053;SDS011;59918;51.280;7.950;2024-03-08T10:01:57;16.23;;;11.05;;
72053;SDS011;59918;51.280;7.950;2024-03-08T10:04:22;16.40;;;10.95;;
72053;SDS011;59918;51.280;7.950;2024-03-08T10:06:47;15.27;;;10.70;;
72053;SDS011;59918;51.280;7.950;2024-03-08T10:09:13;17.25;;;11.00;;
72053;SDS011;59918;51.280;7.950;2024-03-08T10:11:38;18.10;;;10.57;;
72053;SDS011;59918;51.280;7.950;2024-03-08T10:14:07;19.25;;;10.93;;
72053;SDS011;59918;51.280;7.950;2024-03-08T10:16:34;16.95;;;11.05;;
72053;SDS011;59918;51.280;7.950;2024-03-08T10:18:59;22.20;;;13.02;;
72053;SDS011;59918;51.280;7.950;2024-03-08T10:21:24;22.75;;;13.35;;
72053;SDS011;59918;51.280;7.950;2024-03-08T10:23:50;21.45;;;13.27;;
72053;SDS011;59918;51.280;7.950;2024-03-08T10:26:15;18.45;;;11.85;;
72053;SDS011;59918;51.280;7.950;2024-03-08T10:28:44;23.63;;;13.45;;
72053;SDS011;59918;51.280;7.950;2024-03-08T10:31:11;18.77;;;12.05;;
72053;SDS011;59918;51.280;7.950;2024-03-08T10:33:36;17.70;;;12.50;;
72053;SDS011;59918;51.280;7.950;2024-03-08T10:36:01;16.33;;;11.90;;
72053;SDS011;59918;51.280;7.950;2024-03-08T10:38:27;17.65;;;11.60;;
72053;SDS011;59918;51.280;7.950;2024-03-08T10:40:58;15.95;;;11.00;;
72053;SDS011;59918;51.280;7.950;2024-03-08T10:43:26;17.98;;;11.75;;
72053;SDS011;59918;51.280;7.950;2024-03-08T10:45:57;17.85;;;11.85;;
72053;SDS011;59918;51.280;7.950;2024-03-08T10:48:44;15.57;;;10.98;;
72053;SDS011;59918;51.280;7.950;2024-03-08T10:51:11;12.20;;;9.50;;
72053;SDS011;59918;51.280;7.950;2024-03-08T10:53:36;12.82;;;10.13;;
72053;SDS011;59918;51.280;7.950;2024-03-08T10:56:03;18.17;;;10.55;;
72053;SDS011;59918;51.280;7.950;2024-03-08T10:58:28;14.13;;;10.45;;
72053;SDS011;59918;51.280;7.950;2024-03-08T11:00:54;12.80;;;9.60;;
72053;SDS011;59918;51.280;7.950;2024-03-08T11:03:44;13.55;;;9.15;;
72053;SDS011;59918;51.280;7.950;2024-03-08T11:06:14;11.23;;;8.57;;
72053;SDS011;59918;51.280;7.950;2024-03-08T11:08:40;10.15;;;8.30;;
72053;SDS011;59918;51.280;7.950;2024-03-08T11:11:05;10.95;;;9.07;;
72053;SDS011;59918;51.280;7.950;2024-03-08T11:13:47;11.75;;;8.68;;
72053;SDS011;59918;51.280;7.950;2024-03-08T11:18:53;14.80;;;9.98;;
72053;SDS011;59918;51.280;7.950;2024-03-08T11:21:18;17.92;;;10.10;;
72053;SDS011;59918;51.280;7.950;2024-03-08T11:23:58;13.52;;;10.52;;
72053;SDS011;59918;51.280;7.950;2024-03-08T11:26:24;14.35;;;10.88;;
72053;SDS011;59918;51.280;7.950;2024-03-08T11:28:49;13.82;;;10.50;;
72053;SDS011;59918;51.280;7.950;2024-03-08T11:33:46;13.57;;;9.82;;
72053;SDS011;59918;51.280;7.950;2024-03-08T11:36:12;14.13;;;9.52;;
72053;SDS011;59918;51.280;7.950;2024-03-08T11:38:42;12.40;;;9.30;;
72053;SDS011;59918;51.280;7.950;2024-03-08T11:41:11;11.85;;;10.18;;
72053;SDS011;59918;51.280;7.950;2024-03-08T11:43:36;13.00;;;9.20;;
72053;SDS011;59918;51.280;7.950;2024-03-08T11:46:07;10.75;;;8.52;;
72053;SDS011;59918;51.280;7.950;2024-03-08T11:50:59;10.48;;;8.98;;
72053;SDS011;59918;51.280;7.950;2024-03-08T11:53:25;9.52;;;8.50;;
72053;SDS011;59918;51.280;7.950;2024-03-08T11:55:50;11.30;;;8.45;;
72053;SDS011;59918;51.280;7.950;2024-03-08T11:58:16;10.50;;;9.27;;
72053;SDS011;59918;51.280;7.950;2024-03-08T12:00:41;14.98;;;9.70;;
72053;SDS011;59918;51.280;7.950;2024-03-08T12:03:07;11.27;;;9.95;;
72053;SDS011;59918;51.280;7.950;2024-03-08T12:05:33;12.88;;;9.93;;
72053;SDS011;59918;51.280;7.950;2024-03-08T12:07:59;11.68;;;9.98;;
72053;SDS011;59918;51.280;7.950;2024-03-08T12:10:24;12.52;;;9.57;;
72053;SDS011;59918;51.280;7.950;2024-03-08T12:12:50;10.93;;;9.10;;
72053;SDS011;59918;51.280;7.950;2024-03-08T12:15:17;12.82;;;11.07;;
72053;SDS011;59918;51.280;7.950;2024-03-08T12:17:52;12.43;;;10.10;;
72053;SDS011;59918;51.280;7.950;2024-03-08T12:22:47;12.38;;;10.50;;
72053;SDS011;59918;51.280;7.950;2024-03-08T12:25:13;12.48;;;10.38;;
72053;SDS011;59918;51.280;7.950;2024-03-08T12:27:39;12.10;;;10.18;;
72053;SDS011;59918;51.280;7.950;2024-03-08T12:30:15;12.27;;;10.98;;
72053;SDS011;59918;51.280;7.950;2024-03-08T12:32:46;12.73;;;10.07;;
72053;SDS011;59918;51.280;7.950;2024-03-08T12:35:13;11.20;;;9.82;;
72053;SDS011;59918;51.280;7.950;2024-03-08T12:37:40;12.88;;;10.48;;
72053;SDS011;59918;51.280;7.950;2024-03-08T12:40:09;11.32;;;9.95;;
72053;SDS011;59918;51.280;7.950;2024-03-08T12:42:34;13.18;;;10.68;;
72053;SDS011;59918;51.280;7.950;2024-03-08T12:45:00;12.98;;;11.23;;
72053;SDS011;59918;51.280;7.950;2024-03-08T12:47:25;15.70;;;11.88;;
72053;SDS011;59918;51.280;7.950;2024-03-08T12:49:50;13.88;;;11.43;;
72053;SDS011;59918;51.280;7.950;2024-03-08T12:52:15;12.73;;;10.83;;
72053;SDS011;59918;51.280;7.950;2024-03-08T12:54:41;13.27;;;11.38;;
72053;SDS011;59918;51.280;7.950;2024-03-08T12:57:06;12.40;;;10.82;;
72053;SDS011;59918;51.280;7.950;2024-03-08T12:59:31;13.80;;;11.45;;
72053;SDS011;59918;51.280;7.950;2024-03-08T13:01:56;12.98;;;10.75;;
72053;SDS011;59918;51.280;7.950;2024-03-08T13:04:22;13.13;;;11.40;;
72053;SDS011;59918;51.280;7.950;2024-03-08T13:06:47;12.67;;;11.20;;
72053;SDS011;59918;51.280;7.950;2024-03-08T13:09:12;14.98;;;12.05;;
72053;SDS011;59918;51.280;7.950;2024-03-08T13:11:37;13.85;;;11.70;;
72053;SDS011;59918;51.280;7.950;2024-03-08T13:14:03;13.85;;;11.48;;
72053;SDS011;59918;51.280;7.950;2024-03-08T13:16:29;14.70;;;12.73;;
72053;SDS011;59918;51.280;7.950;2024-03-08T13:18:56;14.77;;;12.13;;
72053;SDS011;59918;51.280;7.950;2024-03-08T13:21:22;15.30;;;11.20;;
72053;SDS011;59918;51.280;7.950;2024-03-08T13:23:47;14.18;;;12.20;;
72053;SDS011;59918;51.280;7.950;2024-03-08T13:26:12;14.40;;;12.93;;
72053;SDS011;59918;51.280;7.950;2024-03-08T13:28:38;13.93;;;12.43;;
72053;SDS011;59918;51.280;7.950;2024-03-08T13:31:06;14.15;;;12.65;;
72053;SDS011;59918;51.280;7.950;2024-03-08T13:33:34;13.60;;;12.00;;
72053;SDS011;59918;51.280;7.950;2024-03-08T13:36:01;14.07;;;12.07;;
72053;SDS011;59918;51.280;7.950;2024-03-08T13:38:27;15.90;;;12.73;;
72053;SDS011;59918;51.280;7.950;2024-03-08T13:40:54;15.20;;;13.05;;
72053;SDS011;59918;51.280;7.950;2024-03-08T13:43:19;14.35;;;12.85;;
72053;SDS011;59918;51.280;7.950;2024-03-08T13:45:45;17.27;;;12.65;;
72053;SDS011;59918;51.280;7.950;2024-03-08T13:48:11;17.00;;;13.18;;
72053;SDS011;59918;51.280;7.950;2024-03-08T13:50:36;14.13;;;12.63;;
72053;SDS011;59918;51.280;7.950;2024-03-08T13:53:01;15.23;;;12.85;;
72053;SDS011;59918;51.280;7.950;2024-03-08T13:55:26;14.43;;;12.45;;
72053;SDS011;59918;51.280;7.950;2024-03-08T13:57:52;15.95;;;12.95;;
72053;SDS011;59918;51.280;7.950;2024-03-08T14:00:17;14.13;;;12.35;;
72053;SDS011;59918;51.280;7.950;2024-03-08T14:02:42;13.98;;;12.48;;
72053;SDS011;59918;51.280;7.950;2024-03-08T14:05:08;14.30;;;12.02;;
72053;SDS011;59918;51.280;7.950;2024-03-08T14:07:33;13.18;;;11.90;;
72053;SDS011;59918;51.280;7.950;2024-03-08T14:09:58;14.43;;;12.35;;
72053;SDS011;59918;51.280;7.950;2024-03-08T14:12:23;13.97;;;12.57;;
72053;SDS011;59918;51.280;7.950;2024-03-08T14:14:49;15.80;;;13.35;;
72053;SDS011;59918;51.280;7.950;2024-03-08T14:17:14;14.50;;;12.60;;
72053;SDS011;59918;51.280;7.950;2024-03-08T14:19:39;15.98;;;13.30;;
72053;SDS011;59918;51.280;7.950;2024-03-08T14:22:04;14.43;;;12.87;;
72053;SDS011;59918;51.280;7.950;2024-03-08T14:24:30;15.40;;;13.80;;
72053;SDS011;59918;51.280;7.950;2024-03-08T14:26:56;16.13;;;13.80;;